CYBW/YBW METAR and TAF weather

Enter ICAO airport designator
Station Type Date Time Source
CYBW METAR 2019/10/18 07:00 UTC NOAA

CYBW 180700Z AUTO 23007KT 190V260 9SM BKN150 M01/M06 A2941 RMK SLP983


Station Type Date Time Source
CYBW Decoded METAR 2019/10/18 07:00 UTC NOAA

Calgary / Springbank, Canada (CYBW) 51-06N 114-22W
Oct 18, 2019 - 03:00 AM EDT / 2019.10.18 0700 UTC
Wind: from the SW (230 degrees) at 8 MPH (7 KT) (direction variable):0
Visibility: 9 mile(s):0
Sky conditions: mostly cloudy
Temperature: 30 F (-1 C)
Windchill: 23 F (-5 C):1
Dew Point: 21 F (-6 C)
Relative Humidity: 68%
Pressure (altimeter): 29.41 in. Hg (995 hPa)
ob: CYBW 180700Z AUTO 23007KT 190V260 9SM BKN150 M01/M06 A2941 RMK SLP983
cycle: 7

Station Type Date Time Source
CYBW TAF 2019/10/17 19:24 UTC NOAA

TAF
AMD TAF
AMD CYBW 171921Z 1719/1804 28018G28KT P6SM FEW200
BECMG 1802/1804 27005KT
RMK FCST BASED ON AUTO OBS. NXT FCST BY 180000Z

Example: see airport list